Time;durP1;ratioP1;P1;durP2;ratioP2;P2;SDS_P1;SDS_P2;PMS_P1;PMS_P2;Temp;Humidity;BMP_temperature;BMP_pressure;BME280_temperature;BME280_humidity;BME280_pressure;Samples;Min_cycle;Max_cycle;Signal;HPM_P1;HPM_P2
2021/10/21 00:02:02;;;;;;;15.25;10.80;;;;;;;10.99;55.99;99447.91;1651103;85;21609;-59
2021/10/21 00:04:29;;;;;;;18.63;10.60;;;;;;;10.97;56.06;99447.97;1643712;84;21865;-58
2021/10/21 00:06:56;;;;;;;14.80;10.15;;;;;;;10.85;56.29;99444.16;1647488;85;21436;-58
2021/10/21 00:09:23;;;;;;;14.70;11.15;;;;;;;10.89;56.39;99447.49;1610395;86;21029;-58
2021/10/21 00:11:50;;;;;;;15.15;10.80;;;;;;;10.82;56.59;99441.66;1652149;84;21525;-58
2021/10/21 00:14:17;;;;;;;15.03;10.83;;;;;;;10.75;56.77;99448.59;1661693;84;21446;-58
2021/10/21 00:16:43;;;;;;;14.18;10.95;;;;;;;10.69;56.97;99455.83;1694889;83;22097;-59
2021/10/21 00:19:10;;;;;;;16.45;11.05;;;;;;;10.75;56.84;99448.59;1684546;83;21581;-59
2021/10/21 00:21:37;;;;;;;14.90;10.80;;;;;;;10.65;57.13;99449.02;1684773;83;21541;-58
2021/10/21 00:24:04;;;;;;;14.53;10.78;;;;;;;10.66;57.14;99446.80;1656724;84;21671;-59
2021/10/21 00:26:31;;;;;;;18.98;11.78;;;;;;;10.61;57.33;99441.36;1638670;85;21507;-59
2021/10/21 00:28:57;;;;;;;16.57;11.68;;;;;;;10.66;57.24;99438.03;1624405;86;22118;-58
2021/10/21 00:31:24;;;;;;;17.35;11.25;;;;;;;10.48;57.79;99438.42;1643163;85;21519;-59
2021/10/21 00:33:50;;;;;;;14.87;11.38;;;;;;;10.46;57.81;99433.70;1640620;86;21539;-59
2021/10/21 00:36:17;;;;;;;16.45;10.95;;;;;;;10.44;58.01;99440.34;1649902;85;21676;-58
2021/10/21 00:38:44;;;;;;;15.08;11.40;;;;;;;10.45;57.88;99427.61;1623879;86;21491;-59
2021/10/21 00:41:10;;;;;;;19.00;11.65;;;;;;;10.41;58.09;99426.02;1687894;83;21725;-59
2021/10/21 00:43:38;;;;;;;18.35;11.20;;;;;;;10.37;58.18;99417.88;1701999;83;21549;-59
2021/10/21 00:46:06;;;;;;;15.93;11.33;;;;;;;10.47;58.07;99415.68;1661825;84;21593;-59
2021/10/21 00:48:37;;;;;;;18.70;11.38;;;;;;;10.33;58.37;99414.54;1629943;86;21596;-59
2021/10/21 00:51:09;;;;;;;18.32;11.80;;;;;;;10.35;58.42;99408.38;1693986;83;22325;-58
2021/10/21 00:53:36;;;;;;;17.70;11.97;;;;;;;10.34;58.43;99404.91;1652132;84;21632;-59
2021/10/21 00:56:03;;;;;;;16.25;11.30;;;;;;;10.23;58.71;99400.09;1661791;84;21530;-58
2021/10/21 00:58:32;;;;;;;18.82;11.20;;;;;;;10.31;58.54;99395.83;1688160;83;21004;-58
2021/10/21 01:00:59;;;;;;;19.07;11.83;;;;;;;10.30;58.73;99398.93;1655887;84;21620;-58
2021/10/21 01:03:28;;;;;;;14.78;11.20;;;;;;;10.22;58.82;99401.00;1661732;84;21442;-58
2021/10/21 01:05:54;;;;;;;18.17;10.82;;;;;;;10.20;59.08;99384.45;1667650;84;21825;-58
2021/10/21 01:08:21;;;;;;;22.60;12.05;;;;;;;10.30;58.82;99384.88;1639693;85;21652;-59
2021/10/21 01:10:48;;;;;;;17.12;11.12;;;;;;;10.19;58.90;99371.38;1646654;85;21432;-58
2021/10/21 01:13:14;;;;;;;16.42;11.48;;;;;;;10.23;59.02;99383.48;1665238;84;21533;-59
2021/10/21 01:15:41;;;;;;;17.62;11.97;;;;;;;10.20;59.19;99375.73;1636927;85;21523;-58
2021/10/21 01:18:08;;;;;;;18.43;10.57;;;;;;;10.19;59.21;99380.58;1626830;86;21623;-58
2021/10/21 01:20:35;;;;;;;18.65;11.50;;;;;;;10.15;59.24;99371.98;1693201;83;21486;-57
2021/10/21 01:23:02;;;;;;;15.40;11.17;;;;;;;10.11;59.60;99371.73;1689992;83;21526;-58
2021/10/21 01:25:30;;;;;;;16.95;11.70;;;;;;;10.08;59.65;99374.05;1709398;83;21541;-58
2021/10/21 01:27:57;;;;;;;18.57;11.38;;;;;;;10.08;59.59;99360.07;1650285;84;21549;-58
2021/10/21 01:30:27;;;;;;;15.23;11.38;;;;;;;10.10;59.74;99360.37;1663427;84;21831;-58
2021/10/21 01:32:56;;;;;;;18.17;11.73;;;;;;;10.11;59.67;99360.78;1650817;84;21091;-58
2021/10/21 01:35:24;;;;;;;14.45;10.80;;;;;;;10.04;59.80;99354.54;1671129;84;21018;-58
2021/10/21 01:37:51;;;;;;;21.48;10.68;;;;;;;10.09;59.78;99357.34;1642271;85;21014;-58
2021/10/21 01:40:19;;;;;;;13.88;10.28;;;;;;;10.07;59.82;99363.61;1609863;87;21668;-58
2021/10/21 01:42:47;;;;;;;17.23;11.57;;;;;;;10.02;59.93;99360.33;1662744;84;21822;-57
2021/10/21 01:45:24;;;;;;;17.52;10.60;;;;;;;10.00;60.01;99364.80;1659640;84;21536;-58
2021/10/21 01:47:51;;;;;;;18.77;10.98;;;;;;;10.05;60.02;99364.14;1667606;84;21533;-58
2021/10/21 01:50:19;;;;;;;21.20;10.87;;;;;;;9.97;60.16;99355.30;1651654;85;21467;-58
2021/10/21 01:52:47;;;;;;;15.60;12.18;;;;;;;9.87;60.28;99350.92;1634118;86;21027;-58
2021/10/21 01:55:15;;;;;;;18.50;11.80;;;;;;;9.93;60.42;99348.48;1655007;84;21575;-57
2021/10/21 01:57:42;;;;;;;18.70;11.38;;;;;;;9.87;60.51;99343.48;1653682;85;21562;-58
2021/10/21 02:00:12;;;;;;;20.37;11.00;;;;;;;9.88;60.58;99337.32;1659040;85;21650;-58
2021/10/21 02:02:39;;;;;;;16.02;11.53;;;;;;;9.91;60.49;99334.56;1638709;85;21639;-58
2021/10/21 02:05:09;;;;;;;18.48;11.40;;;;;;;9.84;60.64;99339.70;1670404;84;21538;-58
2021/10/21 02:07:35;;;;;;;;;;;;;;;9.81;60.81;99340.66;1648655;84;21852;-58
2021/10/21 02:10:09;;;;;;;18.42;11.68;;;;;;;9.72;61.03;99335.38;1648310;85;20418;-58
2021/10/21 02:12:37;;;;;;;14.95;11.78;;;;;;;9.71;60.94;99331.50;1642878;86;21574;-58
2021/10/21 02:15:05;;;;;;;15.95;11.55;;;;;;;9.72;61.12;99339.32;1637747;86;21517;-58
2021/10/21 02:17:34;;;;;;;19.02;11.65;;;;;;;9.69;61.22;99336.81;1656835;85;21487;-59
2021/10/21 02:20:01;;;;;;;18.25;12.70;;;;;;;9.71;61.32;99345.94;1642477;86;21954;-58
2021/10/21 02:22:29;;;;;;;17.32;12.28;;;;;;;9.70;61.31;99343.78;1658615;84;21667;-58
2021/10/21 02:24:57;;;;;;;19.67;12.60;;;;;;;9.63;61.50;99337.56;1640627;84;21478;-58
2021/10/21 02:27:24;;;;;;;19.73;12.85;;;;;;;9.56;61.74;99327.78;1636021;86;21482;-58
2021/10/21 02:29:51;;;;;;;13.50;11.35;;;;;;;9.53;61.87;99332.71;1663668;84;21626;-58
2021/10/21 02:32:18;;;;;;;23.52;12.93;;;;;;;9.60;62.24;99326.72;1679294;83;21798;-59
2021/10/21 02:34:46;;;;;;;14.90;11.93;;;;;;;9.80;61.59;99317.97;1708140;83;21530;-59
2021/10/21 02:37:13;;;;;;;20.45;12.28;;;;;;;9.79;61.45;99317.56;1694133;83;21612;-58
2021/10/21 02:39:40;;;;;;;16.73;12.13;;;;;;;9.67;61.79;99318.97;1692159;83;21616;-58
2021/10/21 02:42:07;;;;;;;18.92;12.98;;;;;;;9.64;61.87;99317.78;1684205;83;21080;-58
2021/10/21 02:44:34;;;;;;;16.17;11.97;;;;;;;9.64;61.76;99313.84;1690420;83;21839;-59
2021/10/21 02:47:01;;;;;;;19.73;12.88;;;;;;;9.59;61.95;99311.91;1659727;84;21544;-58
2021/10/21 02:49:28;;;;;;;20.88;14.45;;;;;;;9.64;62.01;99309.91;1634945;84;21524;-58
2021/10/21 02:51:57;;;;;;;18.90;13.18;;;;;;;9.65;62.08;99327.38;1629529;86;21585;-58
2021/10/21 02:54:24;;;;;;;19.45;13.10;;;;;;;9.53;62.25;99310.41;1690893;83;20985;-58
2021/10/21 02:56:51;;;;;;;20.20;12.85;;;;;;;9.56;62.32;99309.41;1683884;83;22043;-58
2021/10/21 03:01:48;;;;;;;17.87;13.08;;;;;;;9.51;62.62;99304.37;1786611;79;22968;-58
2021/10/21 03:04:15;;;;;;;22.85;13.22;;;;;;;9.57;62.46;99306.31;1763873;79;21542;-58
2021/10/21 03:06:43;;;;;;;17.42;13.78;;;;;;;9.50;62.45;99301.34;1756865;80;25690;-58
2021/10/21 03:09:10;;;;;;;20.27;13.60;;;;;;;9.46;62.61;99289.75;1760288;80;21791;-58
2021/10/21 03:11:37;;;;;;;17.53;12.60;;;;;;;9.43;63.03;99292.49;1756887;80;21419;-58
2021/10/21 03:14:05;;;;;;;;;;;;;;;9.59;62.86;99292.22;1759881;79;21419;-58
2021/10/21 03:16:35;;;;;;;18.12;12.93;;;;;;;9.57;62.56;99287.94;1756216;79;20140;-59
2021/10/21 03:19:03;;;;;;;21.00;13.25;;;;;;;9.50;62.74;99292.63;1753898;80;22125;-58
2021/10/21 03:21:30;;;;;;;20.05;13.20;;;;;;;9.47;62.82;99289.66;1769695;80;21420;-58
2021/10/21 03:23:56;;;;;;;22.73;14.10;;;;;;;9.47;62.92;99293.59;1752735;80;21021;-58
2021/10/21 03:26:24;;;;;;;19.97;13.67;;;;;;;9.45;62.94;99288.02;1772494;79;20986;-58
2021/10/21 03:28:51;;;;;;;24.18;13.98;;;;;;;9.36;63.24;99291.89;1756524;80;21507;-58
2021/10/21 03:31:19;;;;;;;17.35;12.85;;;;;;;9.33;63.33;99285.02;1733620;81;22154;-58
2021/10/21 03:33:46;;;;;;;18.27;13.75;;;;;;;9.32;63.48;99280.70;1700072;83;28497;-58
2021/10/21 03:36:13;;;;;;;17.45;13.45;;;;;;;9.22;63.48;99279.38;1712201;82;21498;-59
2021/10/21 03:38:40;;;;;;;17.60;13.15;;;;;;;9.35;63.77;99278.40;1699573;82;21589;-58
2021/10/21 03:41:07;;;;;;;19.20;12.70;;;;;;;9.63;62.89;99271.47;1714025;82;21526;-59
2021/10/21 03:43:34;;;;;;;16.95;12.78;;;;;;;9.39;63.27;99267.31;1715798;82;21842;-58
2021/10/21 03:46:02;;;;;;;17.75;13.18;;;;;;;9.42;63.14;99260.59;1704599;82;21565;-58
2021/10/21 03:48:28;;;;;;;18.25;12.98;;;;;;;9.42;63.19;99260.59;1705341;82;21530;-58
2021/10/21 03:50:55;;;;;;;19.95;13.88;;;;;;;9.32;63.45;99263.66;1704723;82;21459;-58
2021/10/21 03:53:22;;;;;;;18.37;14.33;;;;;;;9.26;63.75;99262.59;1716737;82;21521;-58
2021/10/21 03:55:49;;;;;;;20.48;14.10;;;;;;;9.29;63.62;99272.11;1707636;82;21593;-60
2021/10/21 03:58:20;;;;;;;17.97;14.17;;;;;;;9.21;63.90;99261.95;1710651;82;21452;-58
2021/10/21 04:00:45;;;;;;;19.27;13.43;;;;;;;9.15;64.23;99254.33;1697408;82;21504;-58
2021/10/21 04:03:12;;;;;;;16.47;12.73;;;;;;;9.27;64.15;99251.19;1681425;83;21542;-59
2021/10/21 04:05:40;;;;;;;19.75;13.00;;;;;;;9.34;63.81;99250.44;1665920;84;21577;-58
2021/10/21 04:08:08;;;;;;;17.32;13.32;;;;;;;9.24;63.87;99246.53;1685945;83;21460;-58
2021/10/21 04:10:38;;;;;;;18.20;13.68;;;;;;;9.20;63.99;99241.03;1670436;83;21606;-58
2021/10/21 04:13:05;;;;;;;18.10;13.00;;;;;;;9.13;64.16;99239.96;1693174;83;21507;-59
2021/10/21 04:15:33;;;;;;;19.95;13.08;;;;;;;9.08;64.35;99241.08;1730797;80;21631;-59
2021/10/21 04:18:00;;;;;;;18.87;13.85;;;;;;;9.07;64.49;99246.79;1729683;80;21443;-58
2021/10/21 04:20:27;;;;;;;17.80;12.55;;;;;;;9.03;64.52;99239.98;1732034;80;22182;-59
2021/10/21 04:22:53;;;;;;;15.08;12.18;;;;;;;9.05;65.04;99239.92;1735286;81;21545;-58
2021/10/21 04:25:20;;;;;;;17.70;13.55;;;;;;;9.28;64.12;99230.58;1723232;82;21034;-58
2021/10/21 04:27:47;;;;;;;14.90;13.05;;;;;;;9.25;64.02;99229.42;1728098;80;21522;-58
2021/10/21 04:30:13;;;;;;;17.42;13.60;;;;;;;9.13;64.30;99229.47;1732624;80;21494;-57
2021/10/21 04:32:41;;;;;;;20.40;13.38;;;;;;;9.01;64.55;99227.39;1741910;80;21820;-57
2021/10/21 04:35:08;;;;;;;24.55;14.47;;;;;;;9.06;64.61;99226.75;1735173;80;21640;-57
2021/10/21 04:37:35;;;;;;;20.55;14.83;;;;;;;8.92;64.89;99222.55;1696425;82;21445;-57
2021/10/21 04:40:04;;;;;;;18.75;12.80;;;;;;;8.93;64.92;99215.09;1727443;80;21000;-58
2021/10/21 04:42:31;;;;;;;17.77;14.05;;;;;;;8.88;65.60;99232.77;1740835;81;21526;-56
2021/10/21 04:44:58;;;;;;;22.95;13.05;;;;;;;8.93;65.41;99213.30;1732009;80;21825;-58
2021/10/21 04:47:24;;;;;;;16.00;13.50;;;;;;;8.94;65.35;99211.06;1731671;80;21641;-57
2021/10/21 04:49:51;;;;;;;17.25;13.48;;;;;;;8.91;65.25;99212.52;1730273;80;21704;-58
2021/10/21 04:52:19;;;;;;;18.90;13.08;;;;;;;8.86;65.34;99204.45;1733508;80;21024;-59
2021/10/21 04:54:46;;;;;;;17.05;13.75;;;;;;;8.83;65.35;99205.89;1719914;82;20996;-57
2021/10/21 04:57:13;;;;;;;19.17;12.80;;;;;;;8.85;65.33;99211.92;1718775;80;21818;-58
2021/10/21 04:59:40;;;;;;;17.80;13.23;;;;;;;8.80;65.47;99217.38;1712770;80;22019;-57
2021/10/21 05:02:09;;;;;;;18.30;12.73;;;;;;;8.86;65.41;99211.86;1708336;82;21579;-58
2021/10/21 05:04:37;;;;;;;15.15;12.70;;;;;;;9.02;65.21;99211.20;1742082;80;21518;-57
2021/10/21 05:07:04;;;;;;;17.13;12.47;;;;;;;8.94;65.35;99205.81;1747567;80;21584;-59
2021/10/21 05:09:31;;;;;;;17.67;12.75;;;;;;;8.94;65.23;99207.13;1751632;80;21845;-57
2021/10/21 05:11:58;;;;;;;20.00;12.65;;;;;;;9.02;65.17;99206.80;1750516;80;21511;-56
2021/10/21 05:14:24;;;;;;;19.23;13.10;;;;;;;9.07;64.95;99210.08;1751080;80;21491;-59
2021/10/21 05:16:53;;;;;;;15.55;13.10;;;;;;;9.04;65.03;99211.98;1751178;80;21591;-55
2021/10/21 05:19:20;;;;;;;13.93;12.35;;;;;;;9.01;65.17;99206.42;1737707;80;21054;-56
2021/10/21 05:21:46;;;;;;;15.48;12.23;;;;;;;9.00;65.50;99214.34;1747492;80;21523;-55
2021/10/21 05:24:13;;;;;;;18.90;12.45;;;;;;;9.18;65.26;99217.48;1710524;81;21006;-56
2021/10/21 05:26:40;;;;;;;14.65;12.35;;;;;;;9.29;64.62;99231.45;1750666;80;21527;-57
2021/10/21 05:29:07;;;;;;;17.92;13.05;;;;;;;9.30;64.29;99222.64;1735784;80;21518;-59
2021/10/21 05:31:34;;;;;;;15.85;12.95;;;;;;;9.32;64.29;99221.67;1757557;80;21532;-57
2021/10/21 05:34:02;;;;;;;20.80;13.08;;;;;;;9.24;64.65;99218.52;1751547;80;21884;-58
2021/10/21 05:36:29;;;;;;;22.48;13.70;;;;;;;9.37;64.09;99217.52;1751886;80;21523;-57
2021/10/21 05:38:57;;;;;;;16.93;13.00;;;;;;;9.27;64.51;99218.39;1743295;80;21523;-60
2021/10/21 05:41:25;;;;;;;15.18;12.65;;;;;;;9.26;64.64;99223.70;1750880;80;21534;-56
2021/10/21 05:43:54;;;;;;;13.50;12.07;;;;;;;9.37;64.60;99221.92;1752945;80;21548;-56
2021/10/21 05:46:22;;;;;;;15.75;12.50;;;;;;;9.57;64.39;99213.13;1745882;80;21763;-57
2021/10/21 05:48:48;;;;;;;14.43;12.93;;;;;;;9.66;63.48;99214.91;1754431;80;21547;-54
2021/10/21 05:51:16;;;;;;;16.83;12.23;;;;;;;9.61;63.94;99219.98;1752467;80;21538;-54
2021/10/21 05:53:43;;;;;;;16.20;13.18;;;;;;;9.62;63.85;99215.09;1747211;80;21487;-54
2021/10/21 05:56:10;;;;;;;15.67;13.57;;;;;;;9.73;63.33;99218.92;1760657;80;21526;-54
2021/10/21 05:58:38;;;;;;;14.80;13.08;;;;;;;9.78;63.13;99227.92;1756441;80;21742;-54
2021/10/21 06:01:05;;;;;;;17.15;13.65;;;;;;;9.79;63.21;99218.27;1752966;80;21430;-55
2021/10/21 06:03:36;;;;;;;14.70;12.47;;;;;;;9.80;63.06;99224.77;1751636;80;21483;-57
2021/10/21 06:06:03;;;;;;;15.60;12.78;;;;;;;9.95;62.47;99220.58;1747967;80;21539;-58
2021/10/21 06:08:30;;;;;;;18.17;12.58;;;;;;;9.84;62.84;99217.59;1747906;80;21482;-57
2021/10/21 06:10:57;;;;;;;15.03;11.85;;;;;;;9.89;62.88;99208.58;1749341;80;21894;-59
2021/10/21 06:13:24;;;;;;;14.70;12.47;;;;;;;10.09;62.46;99210.24;1728185;80;21472;-58
2021/10/21 06:15:53;;;;;;;14.93;13.00;;;;;;;10.21;62.31;99213.20;1752982;80;21058;-58
2021/10/21 06:18:19;;;;;;;15.60;13.05;;;;;;;10.35;61.63;99216.06;1752855;80;21624;-58
2021/10/21 06:20:46;;;;;;;13.48;12.07;;;;;;;10.30;61.79;99212.77;1746519;80;21536;-58
2021/10/21 06:23:13;;;;;;;15.72;12.82;;;;;;;10.42;61.32;99213.53;1749145;80;21530;-58
2021/10/21 06:25:39;;;;;;;14.85;12.45;;;;;;;10.43;61.04;99203.39;1737780;80;21593;-58
2021/10/21 06:28:06;;;;;;;15.15;13.55;;;;;;;10.45;61.00;99208.14;1741645;80;21491;-58
2021/10/21 06:30:35;;;;;;;15.55;13.18;;;;;;;10.46;61.12;99201.94;1747632;80;21526;-58
2021/10/21 06:33:03;;;;;;;20.62;14.25;;;;;;;10.48;60.94;99206.65;1754853;80;21593;-57
2021/10/21 06:35:30;;;;;;;16.02;13.22;;;;;;;10.51;61.02;99203.04;1752166;80;21886;-58
2021/10/21 06:37:57;;;;;;;17.35;13.00;;;;;;;10.62;60.39;99196.75;1744243;80;21558;-57
2021/10/21 06:40:24;;;;;;;17.83;12.73;;;;;;;10.73;60.06;99193.59;1750523;80;21578;-58
2021/10/21 06:42:51;;;;;;;14.35;12.78;;;;;;;10.75;59.97;99183.00;1747499;80;22202;-58
2021/10/21 06:45:18;;;;;;;15.55;12.28;;;;;;;10.80;60.03;99187.09;1747775;80;22231;-59
2021/10/21 06:47:45;;;;;;;16.27;12.60;;;;;;;11.02;59.27;99188.61;1753363;80;21775;-57
2021/10/21 06:50:12;;;;;;;14.58;12.58;;;;;;;11.06;59.10;99191.02;1755899;80;21125;-59
2021/10/21 06:52:43;;;;;;;15.25;12.82;;;;;;;11.13;58.93;99178.85;1751244;79;21616;-56
2021/10/21 06:55:10;;;;;;;18.10;13.88;;;;;;;11.15;58.73;99177.86;1759441;80;21547;-56
2021/10/21 06:57:57;;;;;;;15.08;13.35;;;;;;;11.16;59.07;99179.55;1711292;82;21442;-57
2021/10/21 07:00:28;;;;;;;16.30;13.65;;;;;;;11.29;58.56;99168.75;1742690;80;21848;-56
2021/10/21 07:02:57;;;;;;;16.32;13.15;;;;;;;11.36;58.35;99173.23;1754160;80;21057;-56
2021/10/21 07:05:26;;;;;;;17.10;13.80;;;;;;;11.50;57.75;99177.75;1755608;80;21514;-56
2021/10/21 07:07:53;;;;;;;16.90;13.53;;;;;;;11.49;57.91;99169.01;1755861;80;21491;-57
2021/10/21 07:10:23;;;;;;;18.17;13.53;;;;;;;11.56;58.00;99166.88;1764834;80;21574;-56
2021/10/21 07:12:52;;;;;;;17.87;13.40;;;;;;;11.63;58.11;99157.71;1737182;80;21643;-56
2021/10/21 07:15:18;;;;;;;15.83;12.80;;;;;;;11.73;57.90;99158.05;1753855;80;21491;-57
2021/10/21 07:17:45;;;;;;;19.27;13.35;;;;;;;11.88;57.37;99161.18;1752920;80;21041;-57
2021/10/21 07:20:14;;;;;;;21.62;13.03;;;;;;;11.98;57.14;99155.39;1763391;80;21010;-56
2021/10/21 07:22:41;;;;;;;14.33;12.82;;;;;;;12.06;56.58;99162.42;1753530;80;21522;-56
2021/10/21 07:25:08;;;;;;;;;;;;;;;12.10;56.64;99154.72;1765165;80;21831;-57
2021/10/21 07:27:35;;;;;;;15.65;13.18;;;;;;;12.20;56.77;99171.69;1750803;80;20213;-56
2021/10/21 07:30:04;;;;;;;16.40;13.48;;;;;;;12.29;56.40;99166.38;1754194;80;22114;-57
2021/10/21 07:32:31;;;;;;;14.47;12.73;;;;;;;12.33;56.55;99165.73;1753444;80;21649;-57
2021/10/21 07:34:58;;;;;;;15.28;13.15;;;;;;;12.41;56.32;99170.08;1749188;80;21538;-57
2021/10/21 07:37:26;;;;;;;14.97;13.40;;;;;;;12.51;55.71;99160.72;1750347;80;21845;-57
2021/10/21 07:39:52;;;;;;;14.83;13.23;;;;;;;12.54;55.55;99162.31;1756603;80;21534;-56
2021/10/21 07:42:19;;;;;;;20.55;12.93;;;;;;;12.61;54.96;99157.91;1749023;80;21601;-58
2021/10/21 07:44:49;;;;;;;22.93;13.85;;;;;;;12.55;55.04;99162.70;1764821;80;21454;-57
2021/10/21 07:47:17;;;;;;;21.27;14.90;;;;;;;12.48;55.33;99152.13;1754796;80;21546;-57
2021/10/21 07:49:44;;;;;;;20.97;14.70;;;;;;;12.45;55.98;99151.38;1759114;80;22332;-56
2021/10/21 07:52:13;;;;;;;19.63;14.57;;;;;;;12.58;55.48;99154.59;1764573;80;21638;-55
2021/10/21 07:54:40;;;;;;;17.50;13.22;;;;;;;12.61;55.69;99149.99;1754638;80;21529;-56
2021/10/21 07:57:07;;;;;;;18.67;14.78;;;;;;;12.74;55.47;99147.96;1762889;80;21506;-55
2021/10/21 07:59:34;;;;;;;15.53;13.93;;;;;;;12.79;55.66;99141.47;1762297;79;21687;-58
2021/10/21 08:02:02;;;;;;;19.92;14.58;;;;;;;12.94;55.57;99141.47;1751517;80;22112;-57
2021/10/21 08:04:30;;;;;;;17.55;14.83;;;;;;;13.07;54.99;99131.86;1748865;80;21389;-56
2021/10/21 08:06:57;;;;;;;14.30;12.73;;;;;;;13.19;54.99;99131.13;1708569;82;21540;-57
2021/10/21 08:09:32;;;;;;;15.38;13.05;;;;;;;13.29;54.50;99134.52;1747385;80;21012;-57
2021/10/21 08:11:57;;;;;;;14.23;12.73;;;;;;;13.44;53.57;99130.46;1747410;80;21025;-59
2021/10/21 08:14:24;;;;;;;16.73;12.10;;;;;;;13.48;53.30;99121.88;1713920;82;21761;-58
2021/10/21 08:16:51;;;;;;;16.48;12.75;;;;;;;13.58;53.18;99120.82;1706071;82;21554;-60
2021/10/21 08:19:19;;;;;;;18.23;12.45;;;;;;;13.67;53.19;99119.39;1748331;80;21502;-59
2021/10/21 08:21:47;;;;;;;14.40;12.18;;;;;;;13.72;53.13;99123.44;1731117;80;21445;-59
2021/10/21 08:24:16;;;;;;;16.80;13.25;;;;;;;13.76;53.19;99124.94;1747836;80;21435;-59
2021/10/21 08:26:43;;;;;;;14.07;12.63;;;;;;;13.82;52.48;99119.28;1745622;80;21873;-58
2021/10/21 08:29:10;;;;;;;13.13;11.80;;;;;;;13.84;52.43;99116.51;1717398;82;21543;-59
2021/10/21 08:31:38;;;;;;;;;;;;;;;13.93;51.63;99109.80;1746715;80;21593;-59
2021/10/21 08:34:05;;;;;;;16.45;11.78;;;;;;;13.97;51.24;99113.44;1745410;80;20534;-59
2021/10/21 08:36:31;;;;;;;18.65;12.50;;;;;;;14.07;51.47;99114.16;1756585;80;21588;-59
2021/10/21 08:38:59;;;;;;;16.85;10.90;;;;;;;14.15;51.75;99108.76;1741432;80;21431;-59
2021/10/21 08:41:25;;;;;;;15.18;12.25;;;;;;;14.31;50.91;99099.32;1745660;80;21550;-59
2021/10/21 08:43:54;;;;;;;17.27;11.78;;;;;;;14.40;50.71;99097.38;1747562;80;21506;-59
2021/10/21 08:46:25;;;;;;;17.07;11.35;;;;;;;14.39;50.91;99095.70;1745017;80;21476;-59
2021/10/21 08:48:57;;;;;;;25.25;12.30;;;;;;;14.37;51.01;99087.48;1742978;80;21514;-60
2021/10/21 08:51:25;;;;;;;12.03;10.85;;;;;;;14.38;51.18;99094.00;1759112;80;21925;-59
2021/10/21 08:54:12;;;;;;;18.07;11.73;;;;;;;14.48;50.53;99086.77;1746359;80;21506;-58
2021/10/21 08:56:39;;;;;;;17.43;11.53;;;;;;;14.56;49.95;99084.44;1675608;83;21687;-58
2021/10/21 08:59:06;;;;;;;16.40;12.63;;;;;;;14.57;49.99;99075.11;1703564;82;21900;-59
2021/10/21 09:01:39;;;;;;;13.68;11.83;;;;;;;14.65;49.89;99069.77;1701326;83;21559;-60
2021/10/21 09:04:30;;;;;;;12.70;11.48;;;;;;;14.83;49.56;99063.22;1684746;83;21408;-61
2021/10/21 09:09:24;;;;;;;13.00;11.38;;;;;;;15.09;49.22;99052.12;1690800;83;21518;-60
2021/10/21 09:12:28;;;;;;;12.35;11.03;;;;;;;15.15;49.14;99042.91;1683248;83;21566;-60
2021/10/21 09:14:55;;;;;;;11.75;10.23;;;;;;;15.27;48.57;99034.55;1607378;87;21439;-60
2021/10/21 09:17:26;;;;;;;15.03;11.08;;;;;;;15.42;48.59;99033.44;1637695;86;21614;-60
2021/10/21 09:19:54;;;;;;;13.95;12.40;;;;;;;15.55;48.19;99024.96;1648696;84;21522;-59
2021/10/21 09:22:28;;;;;;;12.90;11.68;;;;;;;15.67;48.02;99016.61;1660082;84;25674;-60
2021/10/21 09:25:07;;;;;;;12.95;11.12;;;;;;;15.79;47.83;99022.83;1660799;84;21545;-61
2021/10/21 09:27:36;;;;;;;15.30;10.75;;;;;;;15.95;46.84;99012.78;1660854;84;21537;-62
2021/10/21 09:30:06;;;;;;;17.77;10.50;;;;;;;16.15;46.70;99007.77;1660153;84;21776;-62
2021/10/21 09:32:35;;;;;;;16.82;11.08;;;;;;;16.47;46.08;98999.16;1632073;85;21095;-63
2021/10/21 09:35:25;;;;;;;15.48;11.68;;;;;;;16.61;45.98;98996.25;1658415;84;21612;-61
2021/10/21 09:37:54;;;;;;;12.98;10.98;;;;;;;16.66;45.83;98998.08;1644173;85;21504;-61
2021/10/21 09:40:27;;;;;;;12.55;10.08;;;;;;;16.76;44.89;98999.52;1626800;86;21084;-61
2021/10/21 09:43:04;;;;;;;12.60;11.08;;;;;;;16.83;45.02;98995.95;1662920;84;22293;-62
2021/10/21 09:45:41;;;;;;;12.80;11.25;;;;;;;17.02;43.88;98984.70;1630157;86;21572;-62
2021/10/21 09:48:08;;;;;;;12.98;10.68;;;;;;;17.05;43.48;98981.33;1670606;84;21505;-62
2021/10/21 09:50:42;;;;;;;14.43;10.68;;;;;;;17.05;43.15;98980.48;1671404;84;21067;-61
2021/10/21 09:53:29;;;;;;;13.72;10.45;;;;;;;16.86;43.81;98983.27;1662275;84;21564;-61
2021/10/21 09:56:06;;;;;;;13.08;9.65;;;;;;;16.81;43.90;98966.83;1640021;86;21943;-61
2021/10/21 09:58:36;;;;;;;10.48;9.05;;;;;;;16.93;43.31;98959.72;1650792;85;21434;-60
2021/10/21 10:01:12;;;;;;;12.00;9.75;;;;;;;16.91;43.49;98951.90;1644609;85;21582;-61
2021/10/21 10:03:44;;;;;;;12.27;9.70;;;;;;;17.06;43.37;98956.92;1637508;86;21706;-60
2021/10/21 10:06:17;;;;;;;13.93;9.75;;;;;;;17.21;43.51;98957.50;1643545;85;21720;-61
2021/10/21 10:08:47;;;;;;;12.15;9.23;;;;;;;17.38;43.35;98960.95;1647362;84;21797;-63
2021/10/21 10:11:19;;;;;;;13.58;10.63;;;;;;;17.60;42.30;98947.23;1663104;84;21529;-61
2021/10/21 10:13:50;;;;;;;18.25;10.13;;;;;;;17.65;42.46;98955.66;1664104;84;21469;-62
2021/10/21 10:16:17;;;;;;;12.90;11.55;;;;;;;17.64;42.83;98950.83;1662298;85;21589;-62
2021/10/21 10:18:46;;;;;;;12.85;11.30;;;;;;;17.69;43.16;98943.33;1671605;84;21621;-60
2021/10/21 10:21:25;;;;;;;12.03;10.88;;;;;;;17.75;43.13;98932.66;1662053;84;21876;-60
2021/10/21 10:23:57;;;;;;;11.85;10.65;;;;;;;17.76;43.13;98934.33;1667239;84;21504;-61
2021/10/21 10:26:47;;;;;;;19.55;9.58;;;;;;;17.83;43.11;98924.88;1644798;85;21674;-60
2021/10/21 10:29:41;;;;;;;14.30;9.68;;;;;;;18.01;41.43;98914.54;1638142;85;21144;-61
2021/10/21 10:32:32;;;;;;;15.55;11.35;;;;;;;18.09;41.41;98906.73;1600771;86;21568;-62
2021/10/21 10:35:01;;;;;;;10.23;9.05;;;;;;;18.31;39.96;98904.04;1641111;85;21800;-63
2021/10/21 10:37:34;;;;;;;13.48;9.25;;;;;;;18.32;39.60;98886.62;1642450;85;21106;-62
2021/10/21 10:40:02;;;;;;;10.40;9.30;;;;;;;18.33;40.17;98883.45;1627550;86;21520;-62
2021/10/21 10:42:35;;;;;;;9.38;7.40;;;;;;;18.39;40.22;98878.95;1637130;87;21595;-62
2021/10/21 10:45:07;;;;;;;13.22;8.73;;;;;;;18.55;38.88;98880.60;1627091;86;21094;-61
2021/10/21 10:47:46;;;;;;;8.80;7.90;;;;;;;18.56;40.05;98876.98;1637103;86;21761;-66
2021/10/21 10:50:20;;;;;;;11.73;8.33;;;;;;;18.81;39.53;98873.50;1631817;86;21584;-62
2021/10/21 10:53:00;;;;;;;13.10;9.28;;;;;;;19.03;38.91;98869.27;1604319;87;21576;-60
2021/10/21 10:55:50;;;;;;;11.60;8.75;;;;;;;18.99;39.09;98865.70;1637573;85;21500;-62
2021/10/21 10:58:25;;;;;;;14.98;10.55;;;;;;;18.96;39.44;98861.97;1627357;86;21673;-63
2021/10/21 11:00:56;;;;;;;14.78;10.08;;;;;;;18.96;39.23;98852.64;1622684;86;21714;-63
2021/10/21 11:03:41;;;;;;;15.93;10.45;;;;;;;18.90;40.13;98860.70;1617596;86;21527;-65
2021/10/21 11:06:17;;;;;;;13.28;11.45;;;;;;;18.97;40.47;98859.17;1618214;86;21546;-65
2021/10/21 11:09:04;;;;;;;13.62;11.93;;;;;;;19.04;40.26;98848.31;1609388;85;21638;-63
2021/10/21 11:11:49;;;;;;;;;;;;;;;18.94;40.34;98844.78;1633891;87;21416;-62
2021/10/21 11:14:23;;;;;;;12.63;11.43;;;;;;;18.70;40.52;98842.96;1633941;87;21992;-63
2021/10/21 11:16:55;;;;;;;16.48;11.45;;;;;;;18.51;41.27;98841.93;1613401;87;21609;-62
2021/10/21 11:19:45;;;;;;;13.98;11.73;;;;;;;18.37;41.39;98827.19;1644700;85;21504;-63
2021/10/21 11:22:27;;;;;;;14.68;10.93;;;;;;;18.32;41.40;98836.55;1613345;85;21534;-64
2021/10/21 11:25:00;;;;;;;13.00;11.68;;;;;;;18.18;41.65;98832.45;1630488;87;21496;-64
2021/10/21 11:27:37;;;;;;;12.33;10.95;;;;;;;18.02;41.93;98834.25;1636447;85;21723;-61
2021/10/21 11:30:13;;;;;;;11.73;10.53;;;;;;;17.87;42.34;98835.92;1636899;85;21430;-64
2021/10/21 11:32:41;;;;;;;13.88;10.60;;;;;;;17.74;42.67;98843.23;1635980;86;21613;-61
2021/10/21 11:35:22;;;;;;;14.68;11.63;;;;;;;17.57;43.05;98833.20;1640377;85;21507;-61
2021/10/21 11:38:00;;;;;;;15.55;12.35;;;;;;;17.47;43.35;98829.15;1641243;85;21076;-63